createdAt,value
2018-08-24T00:00:34.240Z,17.67
2018-08-24T00:02:36.421Z,18.17
2018-08-24T00:04:38.614Z,16.80
2018-08-24T00:06:41.263Z,18.53
2018-08-24T00:08:43.402Z,18.93
2018-08-24T00:10:45.798Z,17.70
2018-08-24T00:12:47.985Z,16.73
2018-08-24T00:14:50.162Z,18.93
2018-08-24T00:16:52.564Z,17.53
2018-08-24T00:18:54.716Z,18.90
2018-08-24T00:20:56.885Z,19.60
2018-08-24T00:22:59.078Z,19.30
2018-08-24T00:25:01.255Z,18.73
2018-08-24T00:27:35.776Z,19.83
2018-08-24T00:29:38.193Z,19.47
2018-08-24T00:31:41.579Z,21.27
2018-08-24T00:33:50.151Z,21.70
2018-08-24T00:35:52.556Z,19.97
2018-08-24T00:37:54.843Z,19.83
2018-08-24T00:39:57.251Z,21.10
2018-08-24T00:41:59.455Z,19.83
2018-08-24T00:44:01.644Z,20.60
2018-08-24T00:46:03.810Z,21.80
2018-08-24T00:48:06.339Z,19.30
2018-08-24T00:50:08.496Z,21.27
2018-08-24T00:52:10.678Z,21.23
2018-08-24T00:54:13.091Z,20.90
2018-08-24T00:56:15.242Z,20.70
2018-08-24T00:58:17.393Z,21.47
2018-08-24T01:00:23.240Z,21.13
2018-08-24T01:02:25.387Z,21.00
2018-08-24T01:04:32.914Z,20.80
2018-08-24T01:06:35.085Z,21.60
2018-08-24T01:08:37.241Z,20.53
2018-08-24T01:10:39.415Z,19.37
2018-08-24T01:12:41.603Z,20.73
2018-08-24T01:14:46.954Z,19.43
2018-08-24T01:16:54.769Z,20.80
2018-08-24T01:18:56.922Z,20.30
2018-08-24T01:20:59.182Z,21.10
2018-08-24T01:23:01.338Z,21.17
2018-08-24T01:25:03.615Z,21.00
2018-08-24T01:27:06.661Z,20.67
2018-08-24T01:29:08.905Z,21.10
2018-08-24T01:31:11.101Z,19.90
2018-08-24T01:33:13.531Z,22.33
2018-08-24T01:35:15.687Z,24.10
2018-08-24T01:37:18.123Z,20.27
2018-08-24T01:39:20.355Z,18.80
2018-08-24T01:41:22.499Z,20.10
2018-08-24T01:43:24.676Z,21.57
2018-08-24T01:45:26.835Z,20.90
2018-08-24T01:47:28.989Z,21.20
2018-08-24T01:49:31.119Z,21.60
2018-08-24T01:51:33.559Z,20.63
2018-08-24T01:53:35.790Z,21.50
2018-08-24T01:55:37.938Z,20.90
2018-08-24T01:57:40.093Z,21.63
2018-08-24T01:59:42.234Z,21.03
2018-08-24T02:01:44.382Z,20.93
2018-08-24T02:03:46.534Z,22.00
2018-08-24T02:05:48.730Z,21.27
2018-08-24T02:07:50.901Z,20.53
2018-08-24T02:09:53.127Z,21.00
2018-08-24T02:11:55.306Z,21.40
2018-08-24T02:14:03.070Z,20.63
2018-08-24T02:16:05.265Z,22.60
2018-08-24T02:18:13.166Z,22.37
2018-08-24T02:20:20.991Z,21.80
2018-08-24T02:22:23.138Z,19.70
2018-08-24T02:24:25.287Z,19.20
2018-08-24T02:26:27.469Z,17.87
2018-08-24T02:28:29.655Z,14.93
2018-08-24T02:30:31.955Z,15.60
2018-08-24T02:32:34.099Z,13.13
2018-08-24T02:34:36.274Z,11.93
2018-08-24T02:36:38.470Z,11.50
2018-08-24T02:38:40.681Z,8.40
2018-08-24T02:40:42.844Z,8.30
2018-08-24T02:42:46.006Z,7.40
2018-08-24T02:44:48.183Z,7.83
2018-08-24T02:46:50.358Z,8.30
2018-08-24T02:48:52.875Z,7.53
2018-08-24T02:50:55.007Z,7.50
2018-08-24T02:52:57.133Z,8.30
2018-08-24T02:54:59.284Z,7.20
2018-08-24T02:57:01.465Z,7.17
2018-08-24T02:59:03.702Z,6.70
2018-08-24T03:01:05.886Z,6.57
2018-08-24T03:03:08.029Z,6.83
2018-08-24T03:05:10.205Z,5.33
2018-08-24T03:07:12.675Z,5.80
2018-08-24T03:09:14.854Z,5.90
2018-08-24T03:11:16.964Z,5.00
2018-08-24T03:13:19.091Z,5.90
2018-08-24T03:15:21.298Z,5.20
2018-08-24T03:17:29.245Z,5.00
2018-08-24T03:19:31.433Z,4.17
2018-08-24T03:21:33.623Z,3.90
2018-08-24T03:23:36.223Z,4.70
2018-08-24T03:25:38.386Z,3.53
2018-08-24T03:27:40.528Z,4.07
2018-08-24T03:29:42.658Z,3.50
2018-08-24T03:31:44.830Z,3.70
2018-08-24T03:33:47.542Z,3.77
2018-08-24T03:35:49.726Z,3.50
2018-08-24T03:37:51.893Z,3.70
2018-08-24T03:39:54.022Z,3.60
2018-08-24T03:41:56.839Z,4.70
2018-08-24T03:43:59.035Z,4.03
2018-08-24T03:46:01.249Z,3.73
2018-08-24T03:48:03.404Z,4.00
2018-08-24T03:50:05.586Z,4.37
2018-08-24T03:52:07.762Z,4.20
2018-08-24T03:54:19.002Z,4.33
2018-08-24T03:56:21.168Z,4.83
2018-08-24T03:58:23.542Z,4.40
2018-08-24T04:00:25.720Z,4.90
2018-08-24T04:02:27.883Z,4.90
2018-08-24T04:04:30.312Z,5.10
2018-08-24T04:06:32.483Z,5.40
2018-08-24T04:08:34.663Z,5.83
2018-08-24T04:10:37.145Z,5.70
2018-08-24T04:12:39.342Z,5.17
2018-08-24T04:14:41.492Z,5.73
2018-08-24T04:16:49.460Z,6.23
2018-08-24T04:18:51.900Z,6.70
2018-08-24T04:20:54.035Z,5.83
2018-08-24T04:22:56.417Z,6.30
2018-08-24T04:24:58.570Z,6.20
2018-08-24T04:27:00.702Z,6.70
2018-08-24T04:29:02.942Z,7.00
2018-08-24T04:31:05.115Z,8.30
2018-08-24T04:33:07.294Z,7.27
2018-08-24T04:35:09.480Z,6.97
2018-08-24T04:37:11.646Z,7.23
2018-08-24T04:39:13.916Z,7.80
2018-08-24T04:41:16.131Z,7.80
2018-08-24T04:43:18.318Z,7.40
2018-08-24T04:45:20.556Z,8.13
2018-08-24T04:47:22.744Z,7.40
2018-08-24T04:49:24.876Z,8.70
2018-08-24T04:51:27.403Z,7.50
2018-08-24T04:53:29.840Z,7.90
2018-08-24T04:55:32.025Z,7.57
2018-08-24T04:57:34.149Z,9.07
2018-08-24T04:59:36.361Z,8.77
2018-08-24T05:01:38.715Z,8.00
2018-08-24T05:03:41.032Z,7.63
2018-08-24T05:05:43.554Z,8.20
2018-08-24T05:07:45.723Z,7.50
2018-08-24T05:09:47.894Z,6.83
2018-08-24T05:11:50.075Z,6.20
2018-08-24T05:13:52.331Z,6.93
2018-08-24T05:15:54.516Z,5.83
2018-08-24T05:17:56.704Z,5.63
2018-08-24T05:19:58.963Z,5.73
2018-08-24T05:22:01.166Z,5.93
2018-08-24T05:24:03.647Z,6.50
2018-08-24T05:26:05.795Z,7.67
2018-08-24T05:28:07.996Z,5.40
2018-08-24T05:30:10.302Z,6.00
2018-08-24T05:32:12.461Z,6.23
2018-08-24T05:34:14.718Z,5.70
2018-08-24T05:36:16.907Z,5.10
2018-08-24T05:38:19.070Z,5.80
2018-08-24T05:40:21.233Z,4.43
2018-08-24T05:42:23.365Z,5.37
2018-08-24T05:44:25.673Z,4.73
2018-08-24T05:46:27.802Z,5.07
2018-08-24T05:48:29.955Z,5.10
2018-08-24T05:50:32.172Z,5.17
2018-08-24T05:52:34.303Z,5.37
2018-08-24T05:54:36.411Z,5.10
2018-08-24T05:56:38.564Z,4.90
2018-08-24T05:58:40.728Z,4.40
2018-08-24T06:00:45.079Z,4.33
2018-08-24T06:02:47.213Z,4.70
2018-08-24T06:04:49.344Z,4.70
2018-08-24T06:06:51.541Z,4.40
2018-08-24T06:08:59.310Z,4.13
2018-08-24T06:11:02.006Z,4.50
2018-08-24T06:13:04.863Z,4.43
2018-08-24T06:15:06.990Z,4.40
2018-08-24T06:17:14.923Z,4.67
2018-08-24T06:19:17.642Z,5.67
2018-08-24T06:21:19.758Z,4.90
2018-08-24T06:23:21.904Z,5.50
2018-08-24T06:25:24.046Z,4.70
2018-08-24T06:27:26.200Z,5.50
2018-08-24T06:29:28.347Z,4.90
2018-08-24T06:31:30.554Z,5.33
2018-08-24T06:33:32.663Z,5.90
2018-08-24T06:35:35.076Z,5.70
2018-08-24T06:37:37.403Z,6.60
2018-08-24T06:39:39.619Z,6.27
2018-08-24T06:41:42.638Z,5.53
2018-08-24T06:43:44.756Z,6.23
2018-08-24T06:45:46.884Z,6.30
2018-08-24T06:47:49.199Z,6.10
2018-08-24T06:49:51.294Z,6.60
2018-08-24T06:51:53.407Z,5.87
2018-08-24T06:53:55.664Z,6.03
2018-08-24T06:55:57.751Z,6.70
2018-08-24T06:57:59.890Z,6.67
2018-08-24T07:00:02.116Z,6.77
2018-08-24T07:02:04.294Z,6.97
2018-08-24T07:04:06.409Z,7.27
2018-08-24T07:06:08.568Z,7.93
2018-08-24T07:08:10.702Z,7.10
2018-08-24T07:10:13.100Z,7.20
2018-08-24T07:12:15.210Z,7.70
2018-08-24T07:14:17.361Z,7.07
2018-08-24T07:16:19.526Z,7.10
2018-08-24T07:18:21.670Z,6.53
2018-08-24T07:20:23.814Z,7.20
2018-08-24T07:22:25.985Z,7.67
2018-08-24T07:24:28.082Z,7.70
2018-08-24T07:26:30.221Z,7.90
2018-08-24T07:28:33.103Z,8.20
2018-08-24T07:30:35.236Z,7.67
2018-08-24T07:32:37.810Z,7.23
2018-08-24T07:34:39.922Z,7.60
2018-08-24T07:36:42.203Z,8.10
2018-08-24T07:38:44.331Z,7.80
2018-08-24T07:40:46.458Z,8.07
2018-08-24T07:42:48.582Z,8.87
2018-08-24T07:44:52.137Z,8.47
2018-08-24T07:46:54.234Z,7.90
2018-08-24T07:48:56.399Z,8.03
2018-08-24T07:50:58.660Z,9.10
2018-08-24T07:53:00.791Z,9.50
2018-08-24T07:55:02.945Z,8.23
2018-08-24T07:57:05.438Z,8.10
2018-08-24T07:59:07.502Z,8.77
2018-08-24T08:01:09.624Z,8.20
2018-08-24T08:03:11.760Z,10.17
2018-08-24T08:05:14.465Z,8.63
2018-08-24T08:07:16.586Z,8.33
2018-08-24T08:09:18.770Z,8.63
2018-08-24T08:11:20.998Z,9.60
2018-08-24T08:13:23.133Z,9.80
2018-08-24T08:15:25.294Z,9.60
2018-08-24T08:17:27.475Z,9.40
2018-08-24T08:19:30.538Z,9.50
2018-08-24T08:21:32.650Z,8.83
2018-08-24T08:23:34.903Z,8.93
2018-08-24T08:25:37.036Z,9.13
2018-08-24T08:27:39.203Z,8.70
2018-08-24T08:29:47.403Z,8.37
2018-08-24T08:33:58.744Z,8.53
2018-08-24T08:36:00.893Z,9.40
2018-08-24T08:38:03.011Z,8.80
2018-08-24T08:40:05.274Z,9.87
2018-08-24T08:42:07.455Z,9.00
2018-08-24T08:44:10.706Z,10.27
2018-08-24T08:46:12.812Z,8.80
2018-08-24T08:48:14.979Z,7.90
2018-08-24T08:50:17.135Z,9.10
2018-08-24T08:52:19.326Z,9.97
2018-08-24T08:54:21.470Z,8.90
2018-08-24T08:56:23.655Z,8.27
2018-08-24T08:58:25.824Z,9.10
2018-08-24T09:00:27.999Z,8.80
2018-08-24T09:02:30.198Z,8.70
2018-08-24T09:04:32.343Z,8.20
2018-08-24T09:06:34.548Z,8.63
2018-08-24T09:08:36.604Z,9.40
2018-08-24T09:10:38.760Z,8.43
2018-08-24T09:12:41.281Z,9.90
2018-08-24T09:14:43.535Z,10.07
2018-08-24T09:16:45.667Z,9.17
2018-08-24T09:18:53.478Z,9.50
2018-08-24T09:23:03.754Z,9.50
2018-08-24T09:25:11.967Z,10.07
2018-08-24T09:27:20.522Z,8.53
2018-08-24T09:29:28.630Z,8.97
2018-08-24T09:31:32.860Z,9.00
2018-08-24T09:33:35.072Z,8.70
2018-08-24T09:35:37.189Z,10.20
2018-08-24T09:37:39.634Z,9.43
2018-08-24T09:39:41.776Z,8.60
2018-08-24T09:41:43.903Z,9.00
2018-08-24T09:58:54.185Z,8.60
2018-08-24T10:01:02.151Z,9.47
2018-08-24T10:03:10.310Z,9.57
2018-08-24T10:05:18.057Z,9.13
2018-08-24T10:07:23.270Z,9.97
2018-08-24T10:09:25.451Z,11.60
2018-08-24T10:11:27.582Z,11.87
2018-08-24T10:13:29.758Z,11.73
2018-08-24T10:15:31.908Z,11.60
2018-08-24T10:17:34.050Z,12.00
2018-08-24T10:19:36.334Z,11.40
2018-08-24T10:21:38.515Z,10.57
2018-08-24T10:23:40.679Z,9.03
2018-08-24T10:25:42.837Z,9.53
2018-08-24T10:27:44.962Z,8.90
2018-08-24T10:29:47.250Z,9.40
2018-08-24T10:31:49.651Z,8.27
2018-08-24T10:33:51.817Z,9.30
2018-08-24T10:35:53.946Z,8.30
2018-08-24T10:37:56.261Z,7.80
2018-08-24T10:39:58.383Z,8.17
2018-08-24T10:42:00.506Z,6.63
2018-08-24T10:44:02.852Z,6.30
2018-08-24T10:46:04.991Z,6.10
2018-08-24T10:48:07.123Z,6.20
2018-08-24T10:50:09.315Z,6.97
2018-08-24T10:52:11.563Z,6.23
2018-08-24T10:54:13.686Z,5.50
2018-08-24T10:56:16.147Z,7.33
2018-08-24T10:58:18.219Z,5.70
2018-08-24T11:00:20.400Z,5.60
2018-08-24T11:02:22.619Z,5.77
2018-08-24T11:04:24.782Z,5.03
2018-08-24T11:06:26.962Z,4.90
2018-08-24T11:08:29.143Z,4.90
2018-08-24T11:10:31.319Z,5.40
2018-08-24T11:12:33.645Z,5.10
2018-08-24T11:14:35.793Z,4.67
2018-08-24T11:16:37.939Z,4.80
2018-08-24T11:18:40.529Z,5.23
2018-08-24T11:20:42.663Z,4.67
2018-08-24T11:22:44.847Z,6.20
2018-08-24T11:24:47.306Z,4.53
2018-08-24T11:26:49.551Z,4.80
2018-08-24T11:28:51.634Z,5.10
2018-08-24T11:30:53.847Z,4.40
2018-08-24T11:32:56.192Z,3.80
2018-08-24T11:34:58.359Z,3.77
2018-08-24T11:37:00.508Z,4.43
2018-08-24T11:39:04.027Z,4.27
2018-08-24T11:41:06.176Z,4.50
2018-08-24T11:43:08.723Z,4.17
2018-08-24T11:45:10.883Z,4.83
2018-08-24T11:47:17.416Z,3.83
2018-08-24T11:49:19.793Z,4.63
2018-08-24T11:51:21.983Z,4.40
2018-08-24T11:53:24.303Z,3.40
2018-08-24T11:55:26.481Z,3.90
2018-08-24T11:57:28.611Z,4.20
2018-08-24T11:59:30.771Z,3.93
2018-08-24T12:01:33.307Z,3.50
2018-08-24T12:03:35.429Z,4.67
2018-08-24T12:05:37.620Z,5.13
2018-08-24T12:07:39.765Z,4.20
2018-08-24T12:09:41.906Z,3.90
2018-08-24T12:11:44.059Z,3.77
2018-08-24T12:13:46.290Z,3.60
2018-08-24T12:15:48.499Z,3.63
2018-08-24T12:17:50.643Z,4.13
2018-08-24T12:19:53.394Z,3.57
2018-08-24T12:21:55.558Z,3.47
2018-08-24T12:23:57.702Z,3.63
2018-08-24T12:25:59.866Z,3.60
2018-08-24T12:28:02.049Z,3.37
2018-08-24T12:30:04.383Z,3.40
2018-08-24T12:32:06.884Z,4.30
2018-08-24T12:34:08.990Z,5.20
2018-08-24T12:36:13.142Z,6.20
2018-08-24T12:38:15.263Z,3.10
2018-08-24T12:40:17.403Z,3.10
2018-08-24T12:42:19.566Z,3.03
2018-08-24T12:44:22.390Z,3.10
2018-08-24T12:46:24.530Z,3.00
2018-08-24T12:48:26.698Z,3.10
2018-08-24T12:50:29.122Z,2.83
2018-08-24T12:52:31.255Z,2.97
2018-08-24T12:54:33.411Z,2.67
2018-08-24T12:56:35.810Z,2.63
2018-08-24T12:58:37.952Z,3.10
2018-08-24T13:00:40.093Z,3.20
2018-08-24T13:02:42.275Z,3.20
2018-08-24T13:04:44.404Z,3.40
2018-08-24T13:06:46.573Z,2.90
2018-08-24T13:08:49.077Z,2.70
2018-08-24T13:10:51.329Z,2.70
2018-08-24T13:12:53.526Z,2.60
2018-08-24T13:14:56.095Z,3.10
2018-08-24T13:16:58.247Z,2.87
2018-08-24T13:19:00.640Z,2.70
2018-08-24T13:21:03.138Z,2.63
2018-08-24T13:23:05.297Z,2.97
2018-08-24T13:25:07.575Z,2.90
2018-08-24T13:27:09.763Z,2.50
2018-08-24T13:29:11.843Z,2.57
2018-08-24T13:31:13.991Z,2.50
2018-08-24T13:33:16.130Z,3.07
2018-08-24T13:35:18.499Z,2.40
2018-08-24T13:37:20.760Z,2.87
2018-08-24T13:39:22.906Z,2.90
2018-08-24T13:41:25.050Z,2.80
2018-08-24T13:43:27.215Z,2.50
2018-08-24T13:45:29.366Z,2.43
2018-08-24T13:47:31.580Z,2.80
2018-08-24T13:49:33.735Z,2.80
2018-08-24T13:51:35.838Z,2.47
2018-08-24T13:53:38.255Z,2.70
2018-08-24T13:55:40.354Z,2.43
2018-08-24T13:57:42.547Z,2.90
2018-08-24T13:59:44.710Z,2.37
2018-08-24T14:01:46.897Z,2.53
2018-08-24T14:03:49.024Z,3.27
2018-08-24T14:05:55.481Z,2.40
2018-08-24T14:07:57.711Z,2.63
2018-08-24T14:09:59.888Z,2.70
2018-08-24T14:12:02.038Z,2.40
2018-08-24T14:14:04.241Z,1.90
2018-08-24T14:16:06.563Z,2.10
2018-08-24T14:18:09.063Z,2.37
2018-08-24T14:20:11.205Z,2.47
2018-08-24T14:22:13.385Z,2.80
2018-08-24T14:24:15.496Z,2.63
2018-08-24T14:26:17.634Z,2.90
2018-08-24T14:28:19.798Z,2.83
2018-08-24T14:30:22.035Z,2.47
2018-08-24T14:32:24.243Z,2.40
2018-08-24T14:34:26.378Z,2.70
2018-08-24T14:36:28.662Z,3.00
2018-08-24T14:38:30.819Z,2.83
2018-08-24T14:40:32.966Z,2.90
2018-08-24T14:42:35.690Z,2.80
2018-08-24T14:44:37.838Z,2.80
2018-08-24T14:46:39.976Z,2.40
2018-08-24T14:48:42.127Z,2.70
2018-08-24T14:50:44.308Z,2.83
2018-08-24T14:52:46.470Z,2.50
2018-08-24T14:54:48.694Z,3.10
2018-08-24T14:56:50.867Z,2.50
2018-08-24T14:58:53.070Z,2.70
2018-08-24T15:00:55.330Z,2.60
2018-08-24T15:02:57.502Z,2.80
2018-08-24T15:04:59.651Z,2.67
2018-08-24T15:07:01.810Z,2.90
2018-08-24T15:09:07.410Z,2.80
2018-08-24T15:11:09.671Z,3.00
2018-08-24T15:13:11.798Z,2.80
2018-08-24T15:15:14.177Z,2.70
2018-08-24T15:17:16.331Z,2.90
2018-08-24T15:19:18.484Z,2.80
2018-08-24T15:21:20.610Z,2.80
2018-08-24T15:23:22.736Z,2.30
2018-08-24T15:25:24.863Z,2.80
2018-08-24T15:27:27.115Z,3.50
2018-08-24T15:29:29.668Z,2.67
2018-08-24T15:31:31.773Z,2.87
2018-08-24T15:33:34.359Z,2.60
2018-08-24T15:35:36.600Z,3.03
2018-08-24T15:37:38.754Z,2.47
2018-08-24T15:39:41.463Z,2.77
2018-08-24T15:41:43.615Z,2.77
2018-08-24T15:43:45.893Z,3.40
2018-08-24T15:45:48.126Z,2.80
2018-08-24T15:47:51.119Z,3.07
2018-08-24T15:49:53.315Z,3.00
2018-08-24T15:51:55.463Z,2.87
2018-08-24T15:53:57.630Z,3.07
2018-08-24T15:56:01.598Z,3.63
2018-08-24T15:58:03.787Z,3.00
2018-08-24T16:00:06.331Z,3.07
2018-08-24T16:02:08.594Z,3.30
2018-08-24T16:04:10.768Z,3.00
2018-08-24T16:06:13.039Z,2.60
2018-08-24T16:08:15.285Z,2.93
2018-08-24T16:10:17.580Z,3.10
2018-08-24T16:12:20.130Z,2.53
2018-08-24T16:14:22.474Z,3.10
2018-08-24T16:16:24.685Z,2.73
2018-08-24T16:18:26.902Z,2.87
2018-08-24T16:20:29.776Z,2.87
2018-08-24T16:22:33.139Z,2.80
2018-08-24T16:24:35.515Z,3.33
2018-08-24T16:26:37.729Z,3.37
2018-08-24T16:28:40.349Z,3.10
2018-08-24T16:30:42.752Z,2.70
2018-08-24T16:32:44.950Z,3.50
2018-08-24T16:34:49.204Z,2.97
2018-08-24T16:36:51.752Z,3.10
2018-08-24T16:38:54.086Z,3.20
2018-08-24T16:40:56.388Z,3.10
2018-08-24T16:42:58.539Z,2.90
2018-08-24T16:45:00.658Z,4.37
2018-08-24T16:47:02.956Z,2.87
2018-08-24T16:49:05.094Z,3.60
2018-08-24T16:51:07.458Z,3.00
2018-08-24T16:53:09.578Z,3.37
2018-08-24T16:55:11.894Z,2.90
2018-08-24T16:57:14.182Z,2.53
2018-08-24T16:59:16.514Z,4.73
2018-08-24T17:01:18.686Z,2.80
2018-08-24T17:03:20.890Z,3.27
2018-08-24T17:05:23.040Z,2.80
2018-08-24T17:07:25.323Z,3.57
2018-08-24T17:09:28.543Z,2.67
2018-08-24T17:11:30.815Z,3.10
2018-08-24T17:13:32.955Z,2.97
2018-08-24T17:15:35.092Z,3.00
2018-08-24T17:17:37.202Z,3.30
2018-08-24T17:19:39.623Z,3.47
2018-08-24T17:21:41.831Z,2.87
2018-08-24T17:23:44.256Z,3.10
2018-08-24T17:25:46.407Z,2.70
2018-08-24T17:27:48.525Z,3.40
2018-08-24T17:29:50.746Z,2.83
2018-08-24T17:31:52.962Z,3.13
2018-08-24T17:33:55.187Z,3.40
2018-08-24T17:35:57.336Z,3.10
2018-08-24T17:37:59.474Z,3.40
2018-08-24T17:40:01.636Z,2.90
2018-08-24T17:42:03.902Z,3.27
2018-08-24T17:46:10.457Z,3.30
2018-08-24T17:48:12.684Z,4.10
2018-08-24T17:50:22.514Z,2.87
2018-08-24T17:52:24.691Z,3.80
2018-08-24T17:54:33.757Z,3.87
2018-08-24T17:56:36.310Z,3.80
2018-08-24T17:58:38.495Z,3.03
2018-08-24T18:00:40.677Z,2.90
2018-08-24T18:02:42.867Z,2.60
2018-08-24T18:04:45.018Z,2.30
2018-08-24T18:06:47.166Z,2.53
2018-08-24T18:08:49.587Z,2.60
2018-08-24T18:10:51.895Z,5.07
2018-08-24T18:12:54.057Z,4.37
2018-08-24T18:14:56.582Z,5.33
2018-08-24T18:16:58.643Z,2.37
2018-08-24T18:19:00.962Z,5.77
2018-08-24T18:21:03.139Z,2.50
2018-08-24T18:23:05.330Z,2.33
2018-08-24T18:25:07.603Z,2.70
2018-08-24T18:27:09.845Z,2.60
2018-08-24T18:29:12.055Z,2.10
2018-08-24T18:31:14.298Z,2.80
2018-08-24T18:33:16.527Z,2.30
2018-08-24T18:35:18.716Z,2.40
2018-08-24T18:37:20.916Z,2.13
2018-08-24T18:39:23.119Z,2.83
2018-08-24T18:41:25.272Z,2.40
2018-08-24T18:43:27.434Z,2.17
2018-08-24T18:45:29.590Z,2.33
2018-08-24T18:47:31.849Z,2.30
2018-08-24T18:49:34.012Z,2.30
2018-08-24T18:51:36.894Z,2.43
2018-08-24T18:53:39.055Z,2.20
2018-08-24T18:55:41.283Z,3.10
2018-08-24T18:57:43.816Z,2.17
2018-08-24T18:59:45.956Z,2.73
2018-08-24T19:01:48.174Z,2.63
2018-08-24T19:03:50.750Z,2.57
2018-08-24T19:05:52.947Z,2.53
2018-08-24T19:08:00.859Z,2.50
2018-08-24T19:10:03.296Z,2.97
2018-08-24T19:12:11.230Z,3.13
2018-08-24T19:14:13.390Z,2.70
2018-08-24T19:16:15.583Z,3.37
2018-08-24T19:18:23.365Z,2.47
2018-08-24T19:21:33.716Z,2.93
2018-08-24T19:23:36.095Z,3.07
2018-08-24T19:25:38.267Z,2.50
2018-08-24T19:27:46.163Z,2.40
2018-08-24T19:30:53.858Z,3.70
2018-08-24T19:32:56.038Z,3.43
2018-08-24T19:34:58.343Z,3.00
2018-08-24T19:37:00.668Z,2.80
2018-08-24T19:39:04.916Z,2.50
2018-08-24T19:41:12.906Z,2.73
2018-08-24T19:43:15.134Z,3.10
2018-08-24T19:45:17.408Z,2.73
2018-08-24T19:47:25.415Z,2.77
2018-08-24T19:49:27.722Z,3.63
2018-08-24T19:51:29.826Z,3.50
2018-08-24T19:53:32.137Z,3.57
2018-08-24T19:55:34.330Z,3.90
2018-08-24T19:57:42.144Z,4.30
2018-08-24T19:59:44.342Z,5.37
2018-08-24T20:01:46.594Z,5.50
2018-08-24T20:03:48.846Z,5.80
2018-08-24T20:06:57.303Z,5.67
2018-08-24T20:09:05.134Z,3.63
2018-08-24T20:11:07.375Z,3.70
2018-08-24T20:13:09.643Z,3.77
2018-08-24T20:15:17.643Z,3.87
2018-08-24T20:17:25.691Z,3.73
2018-08-24T20:19:28.322Z,3.70
2018-08-24T20:21:30.511Z,3.80
2018-08-24T20:23:32.752Z,3.73
2018-08-24T20:25:34.977Z,3.77
2018-08-24T20:27:37.179Z,3.83
2018-08-24T20:29:39.412Z,3.67
2018-08-24T20:31:41.591Z,4.00
2018-08-24T20:33:43.836Z,3.77
2018-08-24T20:35:45.964Z,3.77
2018-08-24T20:37:48.502Z,4.40
2018-08-24T20:39:50.724Z,3.87
2018-08-24T20:41:52.890Z,4.00
2018-08-24T20:43:55.073Z,3.80
2018-08-24T20:45:57.268Z,4.00
2018-08-24T20:47:59.516Z,4.40
2018-08-24T20:50:01.750Z,3.73
2018-08-24T20:52:03.972Z,3.70
2018-08-24T20:54:06.165Z,3.87
2018-08-24T20:56:08.354Z,3.50
2018-08-24T20:58:10.559Z,5.10
2018-08-24T21:00:12.724Z,3.47
2018-08-24T21:02:14.923Z,4.07
2018-08-24T21:04:17.141Z,3.70
2018-08-24T21:06:19.211Z,3.50
2018-08-24T21:08:21.503Z,3.60
2018-08-24T21:10:23.743Z,3.30
2018-08-24T21:12:25.867Z,3.80
2018-08-24T21:14:28.083Z,3.80
2018-08-24T21:16:30.478Z,3.33
2018-08-24T21:18:32.594Z,4.30
2018-08-24T21:20:34.805Z,3.93
2018-08-24T21:22:36.982Z,3.80
2018-08-24T21:24:39.370Z,3.77
2018-08-24T21:26:41.535Z,3.60
2018-08-24T21:28:43.738Z,4.00
2018-08-24T21:30:45.890Z,3.60
2018-08-24T21:32:48.048Z,3.80
2018-08-24T21:34:52.189Z,3.67
2018-08-24T21:36:54.559Z,3.90
2018-08-24T21:38:56.778Z,3.60
2018-08-24T21:40:58.982Z,3.20
2018-08-24T21:43:01.133Z,3.70
2018-08-24T21:45:03.422Z,3.53
2018-08-24T21:47:05.547Z,3.77
2018-08-24T21:49:07.755Z,3.53
2018-08-24T21:51:09.959Z,3.60
2018-08-24T21:53:12.082Z,3.30
2018-08-24T21:55:14.270Z,4.10
2018-08-24T21:57:16.699Z,3.90
2018-08-24T21:59:18.931Z,4.40
2018-08-24T22:01:21.153Z,4.00
2018-08-24T22:03:23.470Z,4.50
2018-08-24T22:05:25.635Z,4.57
2018-08-24T22:07:27.821Z,4.60
2018-08-24T22:09:29.969Z,4.00
2018-08-24T22:11:32.163Z,3.90
2018-08-24T22:13:34.558Z,3.67
2018-08-24T22:15:36.789Z,3.50
2018-08-24T22:17:38.961Z,3.50
2018-08-24T22:19:41.130Z,4.00
2018-08-24T22:21:43.259Z,3.63
2018-08-24T22:23:45.418Z,3.50
2018-08-24T22:25:47.586Z,3.63
2018-08-24T22:27:49.774Z,3.20
2018-08-24T22:29:51.961Z,3.70
2018-08-24T22:31:54.128Z,3.30
2018-08-24T22:33:56.331Z,3.33
2018-08-24T22:35:58.464Z,3.67
2018-08-24T22:38:00.825Z,4.07
2018-08-24T22:40:03.010Z,3.47
2018-08-24T22:42:05.211Z,3.90
2018-08-24T22:44:07.595Z,4.00
2018-08-24T22:46:09.707Z,3.60
2018-08-24T22:48:11.814Z,4.33
2018-08-24T22:50:14.002Z,3.80
2018-08-24T22:52:16.127Z,3.93
2018-08-24T22:54:18.275Z,3.87
2018-08-24T22:56:20.405Z,4.00
2018-08-24T22:58:22.955Z,3.70
2018-08-24T23:00:25.107Z,3.60
2018-08-24T23:02:27.276Z,4.23
2018-08-24T23:04:36.408Z,3.90
2018-08-24T23:06:38.723Z,5.10
2018-08-24T23:08:40.914Z,4.13
2018-08-24T23:10:43.122Z,4.00
2018-08-24T23:12:45.292Z,4.27
2018-08-24T23:14:47.427Z,4.30
2018-08-24T23:16:49.570Z,4.77
2018-08-24T23:18:51.734Z,4.90
2018-08-24T23:20:53.957Z,4.00
2018-08-24T23:22:56.110Z,4.07
2018-08-24T23:24:58.309Z,4.17
2018-08-24T23:27:00.452Z,4.10
2018-08-24T23:29:02.810Z,3.90
2018-08-24T23:31:05.690Z,4.40
2018-08-24T23:33:07.886Z,4.37
2018-08-24T23:35:10.082Z,4.40
2018-08-24T23:37:12.278Z,3.90
2018-08-24T23:39:14.440Z,4.10
2018-08-24T23:41:16.591Z,4.13
2018-08-24T23:43:18.763Z,4.27
2018-08-24T23:45:20.930Z,4.40
2018-08-24T23:47:23.068Z,4.00
2018-08-24T23:49:25.226Z,4.40
2018-08-24T23:51:27.346Z,4.27
2018-08-24T23:53:29.498Z,4.47
2018-08-24T23:55:31.653Z,3.90
2018-08-24T23:57:33.779Z,4.10
2018-08-24T23:59:36.054Z,4.20
